METAR Data
IDs: Format: Raw Decoded Include TAF

Data at: 2331 UTC 29 May 2020

METAR for:KMUT (Muscatine Muni, IA, US)
Text:KMUT 292315Z AUTO 34011KT 10SM FEW050 20/09 A3011 RMK AO2
Temperature: 20.0°C ( 68°F)
Dewpoint: 9.0°C ( 48°F) [RH = 49%]
Pressure (altimeter):30.11 inches Hg (1019.7 mb)
Winds:from the NNW (340 degrees) at 13 MPH (11 knots; 5.7 m/s)
Visibility:10 or more sm (16+ km)
Ceiling:at least 12,000 feet AGL
Clouds: few clouds at 5000 feet AGL
QC Flag:automated observation with no human augmentation